»·PEaware :: N7CM KPSP-KHND

N7CM :: KPSP-KHND

FLIGHT INFORMATION

Flight Status: Arrived
Operator: Privately registered:
United States
More flights under this callsign
Pilot: Carlos D. (29349)
Aircraft: CESSNA 550 CITATION 2/S2/BRAVO
(C550)
More flights by this aircraft type
Origin: KPSP Palm Springs Intl
United States
Destination: KHND Henderson
United States
More flights between these airports :: More routes between these airports
Route: CATH1 PSP V370 TNP JOMIX1
File this flight plan on PilotEdge
Remarks:
Altitude:
(Current/Filed)
21,000ft
Speed:
(Current/Filed)
275kts
Departed: 03-Jan-21 12:13 PM
Arrived: 03-Jan-21 01:03 PM
Distance/Time
Traveled:
145nm/0:50
Distance/Time
To Go:
Arrived

Flight Plot

Page will automatically refresh every two minutes.

Flight plan parsing failed; only flown route is shown


Map Options




Map Legend


Flown Route
Filed Route
Departure Airport
Arrival Airport
Navaid (VOR, NDB)
Fix

Horizontal Profiles

Position Reports

Time Latitude Longitude Heading Altitude Ground
Speed
03-Jan-21 11:40 33.825781 -116.508297 272 420ft 0kts
03-Jan-21 11:41 33.825781 -116.508297 272 420ft 0kts
03-Jan-21 11:42 33.825781 -116.508297 272 420ft 0kts
03-Jan-21 11:43 33.825781 -116.508297 272 420ft 0kts
03-Jan-21 11:44 33.825781 -116.508297 272 420ft 0kts
03-Jan-21 11:45 33.825781 -116.508297 272 420ft 0kts
03-Jan-21 11:46 33.825781 -116.508297 272 420ft 0kts
03-Jan-21 11:47 33.825781 -116.508297 272 420ft 0kts
03-Jan-21 11:48 33.825781 -116.508297 272 420ft 0kts
03-Jan-21 11:49 33.825781 -116.508297 272 420ft 0kts
03-Jan-21 11:50 33.825781 -116.508297 272 420ft 0kts
03-Jan-21 11:51 33.825781 -116.508297 272 420ft 0kts
03-Jan-21 11:52 33.825781 -116.508297 272 420ft 0kts
03-Jan-21 11:53 33.825781 -116.508297 272 420ft 0kts
03-Jan-21 11:54 33.825781 -116.508297 272 420ft 0kts
03-Jan-21 11:55 33.825781 -116.508297 272 420ft 0kts
03-Jan-21 11:56 33.825781 -116.508297 272 420ft 0kts
03-Jan-21 11:57 33.825781 -116.508297 272 420ft 0kts
03-Jan-21 11:58 33.825781 -116.508297 272 420ft 0kts
03-Jan-21 11:59 33.825781 -116.508297 272 420ft 0kts
03-Jan-21 12:00 33.825781 -116.508297 272 420ft 0kts
03-Jan-21 12:01 33.825781 -116.508297 272 420ft 0kts
03-Jan-21 12:02 33.825781 -116.508297 272 420ft 0kts
03-Jan-21 12:03 33.825781 -116.508297 272 420ft 0kts
03-Jan-21 12:04 33.825781 -116.508297 272 420ft 0kts
03-Jan-21 12:06 33.825902 -116.508294 77 420ft 6kts
03-Jan-21 12:07 33.825349 -116.506228 82 416ft 6kts
03-Jan-21 12:08 33.822712 -116.503529 148 408ft 16kts
03-Jan-21 12:09 33.819804 -116.500946 144 400ft 10kts
03-Jan-21 12:10 33.818515 -116.499246 91 397ft 1kts
03-Jan-21 12:11 33.818513 -116.499182 91 397ft 0kts
03-Jan-21 12:12 33.818558 -116.498264 66 395ft 6kts
03-Jan-21 12:13 33.828724 -116.506923 323 593ft 121kts
03-Jan-21 12:14 33.860061 -116.537377 319 2751ft 163kts
03-Jan-21 12:15 33.896416 -116.568363 352 5420ft 171kts
03-Jan-21 12:16 33.904834 -116.520179 123 8184ft 216kts
03-Jan-21 12:17 33.878115 -116.452191 113 11341ft 237kts
03-Jan-21 12:18 33.865205 -116.374452 62 13006ft 266kts
03-Jan-21 12:19 33.894258 -116.291111 61 15343ft 236kts
03-Jan-21 12:20 33.923655 -116.219155 56 17101ft 247kts
03-Jan-21 12:21 33.955078 -116.144687 56 18819ft 254kts
03-Jan-21 12:21 33.981916 -116.080977 56 20118ft 260kts
03-Jan-21 12:22 34.017472 -115.996628 57 21038ft 318kts
03-Jan-21 12:23 34.061437 -115.891732 58 21054ft 378kts
03-Jan-21 12:24 34.110617 -115.778160 47 21064ft 381kts
03-Jan-21 12:26 34.197070 -115.674611 37 21067ft 373kts
03-Jan-21 12:26 34.260350 -115.603418 37 21067ft 373kts
03-Jan-21 12:27 34.339594 -115.525796 19 21068ft 361kts
03-Jan-21 12:28 34.432857 -115.483026 13 21067ft 358kts
03-Jan-21 12:29 34.526316 -115.442321 13 21067ft 358kts
03-Jan-21 12:30 34.620049 -115.401383 13 21057ft 358kts
03-Jan-21 12:31 34.713751 -115.360377 13 21042ft 358kts
03-Jan-21 12:32 34.804261 -115.309857 29 21033ft 366kts
03-Jan-21 12:33 34.886583 -115.236178 31 21033ft 367kts
03-Jan-21 12:34 34.967908 -115.162148 31 21023ft 353kts
03-Jan-21 12:35 35.040351 -115.096031 31 19043ft 302kts
03-Jan-21 12:36 35.104776 -115.037212 31 17021ft 281kts
03-Jan-21 12:37 35.166153 -114.981045 32 15028ft 272kts
03-Jan-21 12:38 35.230735 -114.940934 11 13310ft 252kts
03-Jan-21 12:39 35.297197 -114.921283 10 11818ft 244kts
03-Jan-21 12:40 35.362569 -114.902652 10 10319ft 239kts
03-Jan-21 12:41 35.422519 -114.885523 10 10021ft 201kts
03-Jan-21 12:42 35.476333 -114.893768 343 8931ft 203kts
03-Jan-21 12:43 35.531279 -114.913157 343 7436ft 208kts
03-Jan-21 12:44 35.584053 -114.932318 343 7300ft 193kts
03-Jan-21 12:45 35.635501 -114.951099 343 7300ft 194kts
03-Jan-21 12:46 35.687548 -114.970122 343 7178ft 201kts
03-Jan-21 12:47 35.742181 -114.993017 335 6180ft 214kts
03-Jan-21 12:48 35.793561 -115.022596 335 6007ft 191kts
03-Jan-21 12:49 35.839727 -115.049382 335 6018ft 172kts
03-Jan-21 12:50 35.880113 -115.072393 336 6014ft 151kts
03-Jan-21 12:51 35.922528 -115.094367 342 5174ft 177kts
03-Jan-21 12:52 35.970860 -115.113447 342 4271ft 186kts
03-Jan-21 12:53 36.020806 -115.133523 332 3815ft 173kts
03-Jan-21 12:54 36.037961 -115.184523 287 3865ft 154kts
03-Jan-21 12:55 36.020690 -115.222491 186 3919ft 154kts
03-Jan-21 12:56 35.976770 -115.228023 182 4442ft 162kts
03-Jan-21 12:57 35.931198 -115.230993 182 5382ft 173kts
03-Jan-21 12:58 35.887897 -115.219836 110 6034ft 185kts
03-Jan-21 12:59 35.880616 -115.152714 94 6031ft 206kts
03-Jan-21 13:00 35.915239 -115.126501 334 5625ft 130kts
03-Jan-21 13:01 35.947851 -115.135698 3 3268ft 105kts
03-Jan-21 13:02 35.972047 -115.135442 1 2437ft 28kts
03-Jan-21 13:03 35.974435 -115.136243 273 2426ft 0kts
03-Jan-21 13:05 35.974435 -115.136243 273 2426ft 0kts

Navigation Log

Ident Type
Flight plan parsing failed, navigation log unavailable